Time;durP1;ratioP1;P1;durP2;ratioP2;P2;SDS_P1;SDS_P2;PMS_P1;PMS_P2;Temp;Humidity;BMP_temperature;BMP_pressure;BME280_temperature;BME280_humidity;BME280_pressure;Samples;Min_cycle;Max_cycle;Signal;HPM_P1;HPM_P2
2022/05/22 00:00:56;;;;;;;0.10;0.10;;;12.30;99.90;;;;;;5009938;28;20454;-91
2022/05/22 00:03:22;;;;;;;0.17;0.17;;;12.40;99.90;;;;;;5009248;28;20201;-90
2022/05/22 00:05:47;;;;;;;0.20;0.20;;;12.30;99.90;;;;;;5008730;28;20228;-90
2022/05/22 00:08:13;;;;;;;0.10;0.10;;;12.30;99.90;;;;;;5008843;28;20192;-91
2022/05/22 00:10:39;;;;;;;0.10;0.10;;;12.40;99.90;;;;;;5008782;28;20196;-91
2022/05/22 00:13:05;;;;;;;0.10;0.10;;;12.30;99.90;;;;;;5008634;28;20219;-90
2022/05/22 00:15:31;;;;;;;0.10;0.10;;;12.30;99.90;;;;;;5010983;28;20188;-90
2022/05/22 00:17:59;;;;;;;0.20;0.20;;;12.30;99.90;;;;;;5011939;28;20785;-90
2022/05/22 00:20:25;;;;;;;0.10;0.10;;;12.40;99.90;;;;;;4993904;28;20235;-90
2022/05/22 00:22:50;;;;;;;0.10;0.10;;;12.40;99.90;;;;;;5013122;28;20497;-90
2022/05/22 00:25:16;;;;;;;0.10;0.10;;;12.40;99.90;;;;;;5009732;28;20246;-89
2022/05/22 00:27:42;;;;;;;0.10;0.10;;;12.40;99.90;;;;;;5010539;28;20635;-90
2022/05/22 00:30:10;;;;;;;0.10;0.10;;;12.40;99.90;;;;;;4981271;28;20287;-89
2022/05/22 00:32:36;;;;;;;0.10;0.10;;;12.30;99.90;;;;;;5007709;28;20493;-90
2022/05/22 00:35:02;;;;;;;0.10;0.10;;;12.30;99.90;;;;;;4994127;28;20444;-90
2022/05/22 00:37:27;;;;;;;0.10;0.10;;;12.20;99.90;;;;;;5012175;28;20608;-90
2022/05/22 00:39:53;;;;;;;0.10;0.10;;;12.30;99.90;;;;;;5009590;28;20458;-90
2022/05/22 00:42:21;;;;;;;0.10;0.10;;;12.10;99.90;;;;;;5006838;28;20242;-89
2022/05/22 00:44:48;;;;;;;0.10;0.10;;;12.10;99.90;;;;;;5007524;28;20482;-90
2022/05/22 00:47:14;;;;;;;0.10;0.10;;;12.10;99.90;;;;;;5010232;28;20467;-90
2022/05/22 00:49:43;;;;;;;0.20;0.20;;;12.20;99.90;;;;;;5010359;28;20450;-89
2022/05/22 00:52:21;;;;;;;0.10;0.10;;;12.20;99.90;;;;;;5014512;28;20449;-90
2022/05/22 00:54:59;;;;;;;0.20;0.20;;;12.10;99.90;;;;;;5009443;28;20477;-89
2022/05/22 00:57:37;;;;;;;0.13;0.13;;;12.10;99.90;;;;;;5006657;28;20442;-90
2022/05/22 01:00:09;;;;;;;0.10;0.10;;;12.10;99.90;;;;;;4993059;28;20443;-89
2022/05/22 01:05:20;;;;;;;0.10;0.10;;;11.90;99.90;;;;;;5001043;28;21025;-90
2022/05/22 01:07:46;;;;;;;0.10;0.10;;;11.90;99.90;;;;;;5008435;28;20474;-89
2022/05/22 01:10:12;;;;;;;0.10;0.10;;;11.90;99.90;;;;;;5009595;28;20451;-90
2022/05/22 01:12:40;;;;;;;0.10;0.10;;;11.90;99.90;;;;;;5005951;28;20196;-91
2022/05/22 01:15:07;;;;;;;0.10;0.10;;;11.90;99.90;;;;;;5005550;28;20446;-89
2022/05/22 01:17:46;;;;;;;0.10;0.10;;;11.90;99.90;;;;;;5007975;28;20443;-89
2022/05/22 01:20:13;;;;;;;0.10;0.10;;;11.90;99.90;;;;;;5008611;28;20479;-90
2022/05/22 01:22:38;;;;;;;0.10;0.10;;;11.80;99.90;;;;;;5007851;28;20525;-88
2022/05/22 01:25:05;;;;;;;0.10;0.10;;;11.90;99.90;;;;;;5006666;28;20826;-88
2022/05/22 01:27:32;;;;;;;0.10;0.10;;;11.80;99.90;;;;;;4991082;28;20242;-89
2022/05/22 01:30:26;;;;;;;0.20;0.20;;;11.80;99.90;;;;;;5005499;28;20962;-89
2022/05/22 01:32:52;;;;;;;0.10;0.10;;;11.90;99.90;;;;;;5003211;28;20459;-88
2022/05/22 01:35:21;;;;;;;0.10;0.10;;;11.80;99.90;;;;;;5006244;28;20534;-89
2022/05/22 01:37:48;;;;;;;0.10;0.10;;;11.80;99.90;;;;;;4987141;28;20455;-89
2022/05/22 01:40:16;;;;;;;0.10;0.10;;;11.80;99.90;;;;;;5001978;28;20949;-89
2022/05/22 01:42:42;;;;;;;0.10;0.10;;;11.90;99.90;;;;;;4989213;28;20863;-89
2022/05/22 01:45:10;;;;;;;0.20;0.20;;;11.80;99.90;;;;;;5005135;28;20571;-89
2022/05/22 01:47:37;;;;;;;0.10;0.10;;;11.80;99.90;;;;;;4983712;28;20451;-89
2022/05/22 01:50:04;;;;;;;0.10;0.10;;;11.70;99.90;;;;;;4985789;28;20737;-90
2022/05/22 01:52:30;;;;;;;0.10;0.10;;;11.70;99.90;;;;;;5010809;28;20457;-87
2022/05/22 01:54:55;;;;;;;0.20;0.20;;;11.80;99.90;;;;;;5014008;28;20519;-89
2022/05/22 01:57:21;;;;;;;0.17;0.17;;;11.80;99.90;;;;;;5013715;28;20611;-89
2022/05/22 01:59:46;;;;;;;0.20;0.20;;;11.70;99.90;;;;;;5011185;28;20188;-89
2022/05/22 02:02:12;;;;;;;0.10;0.10;;;11.70;99.90;;;;;;5010608;28;20235;-89
2022/05/22 02:04:38;;;;;;;0.20;0.20;;;11.70;99.90;;;;;;5009140;28;20567;-87
2022/05/22 02:09:48;;;;;;;0.20;0.20;;;11.80;99.90;;;;;;5011027;28;20192;-89
2022/05/22 02:12:14;;;;;;;0.20;0.20;;;11.80;99.90;;;;;;5012163;28;20459;-88
2022/05/22 02:14:39;;;;;;;0.10;0.10;;;11.70;99.90;;;;;;5003232;28;20435;-88
2022/05/22 02:17:05;;;;;;;0.10;0.10;;;11.70;99.90;;;;;;5007897;28;20238;-89
2022/05/22 02:19:31;;;;;;;0.10;0.10;;;11.70;99.90;;;;;;5009704;28;20231;-87
2022/05/22 02:21:57;;;;;;;0.10;0.10;;;11.70;99.90;;;;;;4994560;28;20768;-88
2022/05/22 02:24:23;;;;;;;0.10;0.10;;;11.80;99.90;;;;;;5012208;28;20271;-91
2022/05/22 02:26:48;;;;;;;0.10;0.10;;;11.70;99.90;;;;;;5013022;28;20463;-90
2022/05/22 02:29:14;;;;;;;0.10;0.10;;;11.70;99.90;;;;;;5004336;28;20212;-90
2022/05/22 02:31:39;;;;;;;0.10;0.10;;;11.80;99.90;;;;;;5006399;28;20240;-88
2022/05/22 02:34:05;;;;;;;0.10;0.10;;;11.80;99.90;;;;;;5009798;28;20192;-88
2022/05/22 02:36:30;;;;;;;0.10;0.10;;;11.70;99.90;;;;;;5009818;28;20644;-88
2022/05/22 02:38:56;;;;;;;0.10;0.10;;;11.70;99.90;;;;;;5010210;28;20199;-88
2022/05/22 02:41:21;;;;;;;0.10;0.10;;;11.70;99.90;;;;;;5012679;28;20191;-87
2022/05/22 02:43:47;;;;;;;0.10;0.10;;;11.80;99.90;;;;;;5011743;28;20226;-89
2022/05/22 02:46:14;;;;;;;0.20;0.20;;;11.90;99.90;;;;;;5010621;28;20259;-89
2022/05/22 02:48:41;;;;;;;0.10;0.10;;;11.80;99.90;;;;;;5016315;28;20430;-88
2022/05/22 02:51:11;;;;;;;0.10;0.10;;;11.90;99.90;;;;;;4994345;28;21092;-88
2022/05/22 02:53:36;;;;;;;0.20;0.20;;;11.80;99.90;;;;;;5004146;28;20538;-89
2022/05/22 02:56:11;;;;;;;0.10;0.10;;;11.80;99.90;;;;;;5009888;28;20454;-90
2022/05/22 02:58:36;;;;;;;0.20;0.20;;;11.80;99.90;;;;;;5012813;28;20234;-88
2022/05/22 03:01:03;;;;;;;0.10;0.10;;;11.80;99.90;;;;;;5006302;28;20482;-89
2022/05/22 03:03:29;;;;;;;0.10;0.10;;;11.80;99.90;;;;;;5010977;28;20181;-89
2022/05/22 03:08:39;;;;;;;0.10;0.10;;;11.80;99.90;;;;;;5011743;28;21272;-88
2022/05/22 03:11:05;;;;;;;0.10;0.10;;;11.80;99.90;;;;;;4992724;28;20451;-88
2022/05/22 03:13:31;;;;;;;0.10;0.10;;;11.70;99.90;;;;;;5008835;28;20210;-87
2022/05/22 03:15:57;;;;;;;0.10;0.10;;;11.70;99.90;;;;;;5010854;28;20439;-89
2022/05/22 03:18:24;;;;;;;0.10;0.10;;;11.90;99.90;;;;;;5005900;28;20447;-89
2022/05/22 03:20:49;;;;;;;0.10;0.10;;;11.80;99.90;;;;;;5010305;28;20723;-88
2022/05/22 03:23:15;;;;;;;0.10;0.10;;;11.80;99.90;;;;;;5010538;28;20570;-89
2022/05/22 03:25:41;;;;;;;0.17;0.17;;;11.90;99.90;;;;;;5010643;28;20234;-89
2022/05/22 03:28:06;;;;;;;0.20;0.20;;;11.80;99.90;;;;;;5009018;28;20185;-89
2022/05/22 03:30:32;;;;;;;0.20;0.20;;;11.90;99.90;;;;;;5007578;28;20187;-89
2022/05/22 03:32:57;;;;;;;0.17;0.17;;;11.80;99.90;;;;;;5011216;28;20636;-89
2022/05/22 03:35:23;;;;;;;0.20;0.20;;;11.80;99.90;;;;;;5018560;28;20374;-93
2022/05/22 03:37:49;;;;;;;0.20;0.20;;;11.80;99.90;;;;;;5013642;28;20187;-91
2022/05/22 03:40:15;;;;;;;0.10;0.10;;;11.90;99.90;;;;;;5013547;28;20186;-92
2022/05/22 03:42:41;;;;;;;0.10;0.10;;;11.80;99.90;;;;;;5003349;28;20196;-90
2022/05/22 03:45:07;;;;;;;0.10;0.10;;;11.90;99.90;;;;;;5014657;28;20461;-91
2022/05/22 03:47:33;;;;;;;0.10;0.10;;;11.90;99.90;;;;;;5013532;28;20806;-91
2022/05/22 03:50:04;;;;;;;0.10;0.10;;;11.90;99.90;;;;;;5010836;28;20447;-90
2022/05/22 03:52:32;;;;;;;0.10;0.10;;;11.90;99.90;;;;;;5010708;28;20192;-90
2022/05/22 03:54:57;;;;;;;0.10;0.10;;;11.90;99.90;;;;;;5012684;28;20927;-91
2022/05/22 03:57:24;;;;;;;0.10;0.10;;;11.90;99.90;;;;;;5012228;28;20516;-92
2022/05/22 03:59:50;;;;;;;0.10;0.10;;;12.00;99.90;;;;;;5013104;28;20184;-91
2022/05/22 04:02:15;;;;;;;0.10;0.10;;;11.90;99.90;;;;;;5007187;28;20961;-91
2022/05/22 04:04:41;;;;;;;0.20;0.20;;;11.90;99.90;;;;;;5012106;28;20266;-91
2022/05/22 04:07:06;;;;;;;0.10;0.10;;;11.90;99.90;;;;;;5006885;28;20189;-90
2022/05/22 04:09:32;;;;;;;0.20;0.20;;;12.00;99.90;;;;;;4999193;28;20201;-91
2022/05/22 04:11:57;;;;;;;0.10;0.10;;;11.90;99.90;;;;;;5007376;28;20245;-90
2022/05/22 04:14:24;;;;;;;0.10;0.10;;;11.90;99.90;;;;;;5011213;28;20188;-91
2022/05/22 04:16:50;;;;;;;0.10;0.10;;;11.90;99.90;;;;;;5008566;28;20180;-90
2022/05/22 04:19:16;;;;;;;0.10;0.10;;;12.00;99.90;;;;;;5009686;28;21002;-92
2022/05/22 04:21:43;;;;;;;0.20;0.20;;;11.90;99.90;;;;;;5009320;28;20466;-91
2022/05/22 04:26:53;;;;;;;0.10;0.10;;;12.00;99.90;;;;;;5010097;28;20461;-89
2022/05/22 04:29:19;;;;;;;0.10;0.10;;;11.90;99.90;;;;;;5010335;28;20537;-91
2022/05/22 04:31:45;;;;;;;0.10;0.10;;;12.00;99.90;;;;;;5007653;28;20190;-90
2022/05/22 04:34:10;;;;;;;0.20;0.20;;;12.00;99.90;;;;;;5008934;28;20827;-90
2022/05/22 04:36:36;;;;;;;0.10;0.10;;;11.90;99.90;;;;;;4993392;28;20212;-90
2022/05/22 04:39:02;;;;;;;0.10;0.10;;;11.90;99.90;;;;;;5008074;28;20189;-91
2022/05/22 04:41:28;;;;;;;0.10;0.10;;;11.80;99.90;;;;;;5010381;28;20264;-90
2022/05/22 04:43:53;;;;;;;0.10;0.10;;;11.80;99.90;;;;;;5009694;28;21045;-89
2022/05/22 04:46:19;;;;;;;0.10;0.10;;;11.90;99.90;;;;;;5008200;28;20495;-91
2022/05/22 04:48:45;;;;;;;0.20;0.20;;;11.80;99.90;;;;;;4988028;28;20199;-89
2022/05/22 04:51:10;;;;;;;0.10;0.10;;;11.90;99.90;;;;;;5012185;28;20467;-89
2022/05/22 04:53:36;;;;;;;0.10;0.10;;;12.00;99.90;;;;;;4996449;28;20573;-89
2022/05/22 04:56:02;;;;;;;0.20;0.20;;;12.10;99.90;;;;;;5011054;28;20185;-90
2022/05/22 04:58:28;;;;;;;0.27;0.27;;;12.00;99.90;;;;;;5011104;28;20656;-89
2022/05/22 05:00:53;;;;;;;0.10;0.10;;;12.10;99.90;;;;;;5008400;28;20509;-90
2022/05/22 05:03:19;;;;;;;0.10;0.10;;;12.20;99.90;;;;;;5008438;28;20255;-90
2022/05/22 05:05:53;;;;;;;0.10;0.10;;;12.20;99.90;;;;;;5009129;28;20216;-90
2022/05/22 05:08:18;;;;;;;0.10;0.10;;;12.30;99.90;;;;;;4998461;28;20233;-90
2022/05/22 05:10:45;;;;;;;0.10;0.10;;;12.30;99.90;;;;;;5000587;28;20923;-89
2022/05/22 05:13:10;;;;;;;0.10;0.10;;;12.30;99.90;;;;;;5010634;28;20555;-89
2022/05/22 05:15:36;;;;;;;0.10;0.10;;;12.20;99.90;;;;;;5009281;28;20513;-93
2022/05/22 05:18:01;;;;;;;0.20;0.20;;;12.30;99.90;;;;;;5011098;28;20184;-92
2022/05/22 05:20:28;;;;;;;0.10;0.10;;;12.30;99.90;;;;;;5011533;28;20243;-88
2022/05/22 05:22:54;;;;;;;0.10;0.10;;;12.30;99.90;;;;;;5009193;28;20286;-91
2022/05/22 05:25:19;;;;;;;0.10;0.10;;;12.20;99.90;;;;;;5010975;28;20568;-90
2022/05/22 05:27:45;;;;;;;0.10;0.10;;;12.20;99.90;;;;;;5015613;28;20218;-90
2022/05/22 05:30:12;;;;;;;0.10;0.10;;;12.10;99.90;;;;;;5010895;28;20199;-89
2022/05/22 05:32:37;;;;;;;0.10;0.10;;;12.20;99.90;;;;;;4993014;28;20192;-91
2022/05/22 05:35:11;;;;;;;0.10;0.10;;;12.20;99.90;;;;;;5008075;28;20791;-90
2022/05/22 05:37:38;;;;;;;0.10;0.10;;;12.10;99.90;;;;;;5008517;28;20200;-91
2022/05/22 05:40:05;;;;;;;0.10;0.10;;;12.20;99.90;;;;;;5008525;28;20593;-88
2022/05/22 05:42:32;;;;;;;0.20;0.20;;;12.30;99.90;;;;;;5007924;28;20450;-89
2022/05/22 05:44:58;;;;;;;0.10;0.10;;;12.40;99.90;;;;;;5005842;28;20570;-91
2022/05/22 05:47:24;;;;;;;0.10;0.10;;;12.30;99.90;;;;;;5011065;28;20547;-89
2022/05/22 05:49:50;;;;;;;0.20;0.20;;;12.40;99.90;;;;;;5008035;28;20506;-88
2022/05/22 05:52:15;;;;;;;0.10;0.10;;;12.50;99.90;;;;;;5005335;28;20463;-88
2022/05/22 05:54:41;;;;;;;0.20;0.20;;;12.40;99.90;;;;;;5009275;28;20203;-90
2022/05/22 05:57:07;;;;;;;0.10;0.10;;;12.50;99.90;;;;;;4989124;28;20608;-87
2022/05/22 05:59:33;;;;;;;0.10;0.10;;;12.40;99.90;;;;;;5005204;28;20211;-87
2022/05/22 06:02:00;;;;;;;0.20;0.20;;;12.50;99.90;;;;;;5010410;28;20246;-88
2022/05/22 06:04:25;;;;;;;0.10;0.10;;;12.50;99.90;;;;;;5008253;28;20536;-88
2022/05/22 06:06:51;;;;;;;0.10;0.10;;;12.50;99.90;;;;;;5009849;28;20490;-88
2022/05/22 06:09:16;;;;;;;0.10;0.10;;;12.70;99.90;;;;;;5007377;28;20447;-88
2022/05/22 06:11:42;;;;;;;0.20;0.20;;;12.70;99.90;;;;;;5005518;28;20188;-88
2022/05/22 06:14:08;;;;;;;0.10;0.10;;;12.80;99.90;;;;;;4986865;28;20563;-88
2022/05/22 06:16:33;;;;;;;0.10;0.10;;;12.70;99.90;;;;;;4987928;28;20215;-89
2022/05/22 06:18:59;;;;;;;0.10;0.10;;;12.90;99.90;;;;;;4989810;28;20447;-87
2022/05/22 06:21:24;;;;;;;0.10;0.10;;;12.80;99.90;;;;;;5008242;28;20259;-87
2022/05/22 06:23:51;;;;;;;0.10;0.10;;;12.80;99.90;;;;;;4995778;28;20191;-86
2022/05/22 06:26:18;;;;;;;0.20;0.20;;;12.90;99.90;;;;;;5005622;28;20775;-85
2022/05/22 06:28:44;;;;;;;0.20;0.20;;;12.80;99.90;;;;;;4989352;28;20963;-86
2022/05/22 06:31:11;;;;;;;0.13;0.13;;;12.90;99.90;;;;;;5001033;28;20474;-86
2022/05/22 06:33:37;;;;;;;0.10;0.10;;;13.00;99.90;;;;;;4988550;28;20457;-87
2022/05/22 06:36:12;;;;;;;0.20;0.20;;;13.00;99.90;;;;;;5008222;28;20534;-88
2022/05/22 06:41:22;;;;;;;0.10;0.10;;;13.10;99.90;;;;;;5010366;28;20438;-89
2022/05/22 06:44:06;;;;;;;0.10;0.10;;;13.10;99.90;;;;;;5009101;28;20451;-90
2022/05/22 06:46:33;;;;;;;0.10;0.10;;;13.20;99.90;;;;;;4994934;28;20597;-89
2022/05/22 06:48:59;;;;;;;0.10;0.10;;;13.30;99.90;;;;;;5017141;28;20439;-89
2022/05/22 06:51:25;;;;;;;0.20;0.20;;;13.40;99.90;;;;;;4997107;28;20443;-89
2022/05/22 06:53:51;;;;;;;0.10;0.10;;;13.40;99.90;;;;;;5001182;28;20450;-89
2022/05/22 06:56:18;;;;;;;0.10;0.10;;;13.40;99.90;;;;;;4997468;28;20443;-87
2022/05/22 06:58:44;;;;;;;0.10;0.10;;;13.50;99.90;;;;;;5013211;28;20427;-89
2022/05/22 07:01:09;;;;;;;0.10;0.10;;;13.60;99.90;;;;;;5016000;28;20486;-87
2022/05/22 07:03:35;;;;;;;0.10;0.10;;;13.70;99.90;;;;;;5013616;28;20988;-88
2022/05/22 07:06:01;;;;;;;0.10;0.10;;;13.80;99.90;;;;;;5010839;28;20251;-90
2022/05/22 07:08:27;;;;;;;0.10;0.10;;;13.90;99.90;;;;;;5011693;28;20191;-88
2022/05/22 07:13:37;;;;;;;0.10;0.10;;;13.70;99.90;;;;;;5009852;28;20485;-89
2022/05/22 07:16:05;;;;;;;0.20;0.20;;;13.80;99.90;;;;;;5009441;28;20826;-88
2022/05/22 07:18:31;;;;;;;0.20;0.20;;;13.90;99.90;;;;;;5008967;28;20185;-89
2022/05/22 07:20:57;;;;;;;0.20;0.20;;;13.70;99.90;;;;;;4997625;28;20486;-91
2022/05/22 07:23:23;;;;;;;0.10;0.10;;;13.90;99.90;;;;;;5009051;28;20222;-89
2022/05/22 07:25:50;;;;;;;0.10;0.10;;;13.90;99.90;;;;;;5012406;28;20486;-89
2022/05/22 07:28:15;;;;;;;0.10;0.10;;;14.00;99.90;;;;;;5006339;28;20492;-90
2022/05/22 07:30:41;;;;;;;0.10;0.10;;;14.10;99.90;;;;;;4987986;28;20451;-88
2022/05/22 07:33:06;;;;;;;0.10;0.10;;;14.30;99.90;;;;;;5010167;28;20188;-89
2022/05/22 07:35:32;;;;;;;0.10;0.10;;;14.40;99.90;;;;;;5006742;28;20184;-88
2022/05/22 07:37:59;;;;;;;0.20;0.20;;;14.50;99.90;;;;;;5013340;28;20204;-93
2022/05/22 07:40:24;;;;;;;0.10;0.10;;;14.30;99.90;;;;;;5013708;28;20833;-90
2022/05/22 07:42:50;;;;;;;0.10;0.10;;;14.30;99.90;;;;;;4992715;28;20454;-90
2022/05/22 07:45:16;;;;;;;0.10;0.10;;;14.40;99.90;;;;;;5009058;28;20220;-88
2022/05/22 07:47:42;;;;;;;0.10;0.10;;;14.40;99.90;;;;;;5011038;28;20435;-89
2022/05/22 07:50:17;;;;;;;0.10;0.10;;;14.60;99.90;;;;;;5013165;28;20200;-90
2022/05/22 07:52:46;;;;;;;0.10;0.10;;;14.80;99.90;;;;;;5012191;28;20439;-89
2022/05/22 07:55:18;;;;;;;0.10;0.10;;;14.90;99.90;;;;;;5011844;28;20506;-89
2022/05/22 07:57:46;;;;;;;0.10;0.10;;;15.00;99.90;;;;;;5011728;28;20439;-91
2022/05/22 08:00:15;;;;;;;0.10;0.10;;;15.00;99.90;;;;;;5008084;28;20454;-90
2022/05/22 08:02:42;;;;;;;0.10;0.10;;;15.00;99.90;;;;;;5012382;28;20455;-89
2022/05/22 08:05:08;;;;;;;0.10;0.10;;;15.20;99.90;;;;;;5010589;28;20462;-90
2022/05/22 08:07:35;;;;;;;0.10;0.10;;;15.40;99.90;;;;;;5012352;28;20543;-89
2022/05/22 08:10:01;;;;;;;0.10;0.10;;;15.40;99.90;;;;;;5012802;28;20443;-89
2022/05/22 08:12:27;;;;;;;0.10;0.10;;;15.50;99.90;;;;;;5010556;28;20503;-89
2022/05/22 08:14:52;;;;;;;0.10;0.10;;;15.40;99.90;;;;;;5009718;28;20254;-88
2022/05/22 08:17:21;;;;;;;0.10;0.10;;;15.40;99.90;;;;;;5009706;28;20529;-89
2022/05/22 08:19:48;;;;;;;0.10;0.10;;;15.40;99.90;;;;;;5011300;28;20626;-88
2022/05/22 08:22:15;;;;;;;0.10;0.10;;;15.70;99.90;;;;;;4991826;28;20985;-90
2022/05/22 08:24:41;;;;;;;0.10;0.10;;;15.50;99.90;;;;;;5010360;28;20443;-88
2022/05/22 08:27:06;;;;;;;0.10;0.10;;;15.80;99.90;;;;;;5007575;28;20454;-87
2022/05/22 08:29:32;;;;;;;0.10;0.10;;;15.80;99.90;;;;;;5010237;28;20211;-89
2022/05/22 08:31:58;;;;;;;0.10;0.10;;;16.00;99.90;;;;;;4989899;28;20183;-89
2022/05/22 08:34:23;;;;;;;0.10;0.10;;;16.20;99.90;;;;;;4990920;28;20426;-88
2022/05/22 08:36:51;;;;;;;0.10;0.10;;;15.90;99.90;;;;;;5005731;28;20534;-88
2022/05/22 08:39:17;;;;;;;0.10;0.10;;;15.90;99.90;;;;;;4992925;28;20188;-87
2022/05/22 08:41:47;;;;;;;0.10;0.10;;;15.90;99.90;;;;;;4990828;28;20465;-88
2022/05/22 08:44:16;;;;;;;0.10;0.10;;;16.10;99.90;;;;;;5003987;28;20448;-89
2022/05/22 08:47:03;;;;;;;0.10;0.10;;;15.80;99.90;;;;;;5008689;28;20483;-89
2022/05/22 08:49:51;;;;;;;0.10;0.10;;;15.90;99.90;;;;;;5010255;28;20458;-89
2022/05/22 08:52:25;;;;;;;0.10;0.10;;;15.80;99.90;;;;;;4988640;28;20445;-87
2022/05/22 08:54:58;;;;;;;0.10;0.10;;;16.00;99.90;;;;;;5001365;28;20450;-90
2022/05/22 09:00:19;;;;;;;0.10;0.10;;;16.20;99.90;;;;;;5004509;28;20454;-90
2022/05/22 09:03:05;;;;;;;0.10;0.10;;;16.30;99.90;;;;;;5006467;28;20452;-90
2022/05/22 09:05:32;;;;;;;0.10;0.10;;;16.50;99.90;;;;;;5002859;28;20213;-91
2022/05/22 09:08:06;;;;;;;0.10;0.10;;;17.20;99.90;;;;;;5006181;28;20457;-90
2022/05/22 09:11:13;;;;;;;0.10;0.10;;;17.50;99.90;;;;;;5004975;28;20500;-90
2022/05/22 09:14:19;;;;;;;0.10;0.00;;;17.40;99.90;;;;;;4944156;28;20485;-90
2022/05/22 09:16:55;;;;;;;0.10;0.10;;;17.60;99.90;;;;;;4916365;29;20803;-89
2022/05/22 09:19:32;;;;;;;0.10;0.10;;;17.00;99.90;;;;;;4978384;28;20462;-91
2022/05/22 09:22:27;;;;;;;0.10;0.10;;;16.90;99.90;;;;;;5006211;28;20466;-89
2022/05/22 09:25:09;;;;;;;0.10;0.10;;;16.50;99.90;;;;;;4990108;28;20501;-90
2022/05/22 09:28:04;;;;;;;0.10;0.10;;;16.30;99.90;;;;;;5010242;28;20450;-91
2022/05/22 09:31:31;;;;;;;0.10;0.10;;;16.20;99.90;;;;;;4996449;28;20443;-88
2022/05/22 09:33:56;;;;;;;0.10;0.10;;;16.20;99.90;;;;;;4958871;28;20941;-91
2022/05/22 09:36:22;;;;;;;0.10;0.10;;;16.20;99.90;;;;;;4966847;28;20456;-88
2022/05/22 09:39:01;;;;;;;0.10;0.10;;;16.30;99.90;;;;;;4989105;28;20204;-88
2022/05/22 09:42:02;;;;;;;0.10;0.10;;;16.70;99.90;;;;;;4998521;28;20211;-87
2022/05/22 09:44:42;;;;;;;0.10;0.10;;;16.90;99.90;;;;;;5002637;28;20446;-87
2022/05/22 09:47:33;;;;;;;0.10;0.10;;;17.30;99.90;;;;;;5002839;28;20470;-89
2022/05/22 09:50:04;;;;;;;0.10;0.10;;;17.20;99.90;;;;;;5003779;28;20443;-86
2022/05/22 09:52:45;;;;;;;0.10;0.10;;;17.20;99.90;;;;;;4985904;28;20839;-87
2022/05/22 09:55:19;;;;;;;0.10;0.10;;;16.70;99.90;;;;;;5004658;28;20450;-89
2022/05/22 09:57:53;;;;;;;0.10;0.10;;;16.60;99.90;;;;;;4987545;28;20443;-86
2022/05/22 10:00:53;;;;;;;0.10;0.10;;;17.00;99.90;;;;;;5004497;28;20816;-85
2022/05/22 10:03:36;;;;;;;0.10;0.10;;;17.20;99.90;;;;;;4984425;28;20534;-85
2022/05/22 10:06:36;;;;;;;0.10;0.10;;;16.80;99.90;;;;;;5004614;28;20574;-83
2022/05/22 10:09:26;;;;;;;0.10;0.10;;;16.90;99.90;;;;;;4995620;28;20454;-83
2022/05/22 10:11:57;;;;;;;0.10;0.10;;;16.70;99.90;;;;;;4998330;28;20451;-83
2022/05/22 10:15:00;;;;;;;0.10;0.10;;;17.00;99.90;;;;;;5006113;28;20542;-85
2022/05/22 10:18:00;;;;;;;0.10;0.10;;;17.10;99.90;;;;;;5005748;28;20438;-83
2022/05/22 10:20:46;;;;;;;0.10;0.10;;;17.30;99.90;;;;;;5006828;28;20483;-83
2022/05/22 10:23:45;;;;;;;0.10;0.00;;;17.60;99.90;;;;;;5010615;28;20505;-88
2022/05/22 10:26:28;;;;;;;0.10;0.10;;;18.00;99.90;;;;;;5008472;28;21028;-85
2022/05/22 10:29:03;;;;;;;0.10;0.10;;;18.00;99.90;;;;;;4992636;28;20455;-85
2022/05/22 10:32:05;;;;;;;0.10;0.10;;;18.00;99.90;;;;;;5006396;28;20546;-88
2022/05/22 10:34:45;;;;;;;0.10;0.10;;;17.70;99.90;;;;;;4999246;28;20454;-87
2022/05/22 10:37:21;;;;;;;0.10;0.10;;;17.40;99.90;;;;;;5007427;28;20459;-86
2022/05/22 10:39:47;;;;;;;0.10;0.00;;;17.30;99.90;;;;;;4995677;28;20470;-90
2022/05/22 10:45:24;;;;;;;0.10;0.10;;;17.00;99.90;;;;;;5009740;28;20687;-84
2022/05/22 10:47:52;;;;;;;0.10;0.00;;;17.20;99.90;;;;;;4990926;28;20939;-83
2022/05/22 10:50:19;;;;;;;0.10;0.10;;;17.60;99.90;;;;;;4987453;28;20440;-87
2022/05/22 10:52:46;;;;;;;0.10;0.00;;;18.80;99.90;;;;;;5004377;28;20435;-86
2022/05/22 10:55:32;;;;;;;0.10;0.00;;;19.50;99.90;;;;;;5004025;28;20446;-86
2022/05/22 10:58:05;;;;;;;0.10;0.00;;;18.70;99.90;;;;;;5006267;28;20439;-86
2022/05/22 11:00:32;;;;;;;0.10;0.00;;;17.70;99.90;;;;;;5006717;28;20431;-85
2022/05/22 11:03:13;;;;;;;0.10;0.00;;;17.10;99.90;;;;;;4988662;28;20462;-84
2022/05/22 11:05:39;;;;;;;0.10;0.10;;;16.80;99.90;;;;;;5000973;28;20493;-85
2022/05/22 11:08:05;;;;;;;0.10;0.10;;;16.60;99.90;;;;;;5008678;28;20887;-84
2022/05/22 11:10:39;;;;;;;0.10;0.10;;;16.50;99.90;;;;;;5010541;28;20486;-85
2022/05/22 11:13:08;;;;;;;0.10;0.10;;;16.30;99.90;;;;;;5011468;28;20180;-83
2022/05/22 11:15:40;;;;;;;0.10;0.10;;;16.50;99.90;;;;;;5005229;28;20451;-84
2022/05/22 11:18:11;;;;;;;0.10;0.00;;;18.40;99.90;;;;;;5006587;28;20474;-84
2022/05/22 11:20:45;;;;;;;0.10;0.00;;;19.70;99.90;;;;;;5009621;28;20557;-84
2022/05/22 11:23:40;;;;;;;0.10;0.00;;;20.40;99.90;;;;;;5006510;28;20453;-84
2022/05/22 11:26:25;;;;;;;0.10;0.00;;;20.90;99.90;;;;;;5013596;28;20482;-82
2022/05/22 11:28:50;;;;;;;0.10;0.00;;;21.20;99.90;;;;;;4993223;28;20420;-85
2022/05/22 11:31:34;;;;;;;0.10;0.00;;;20.90;99.90;;;;;;5007906;28;21074;-83
2022/05/22 11:34:18;;;;;;;0.10;0.00;;;21.60;99.90;;;;;;5002116;28;20189;-84
2022/05/22 11:37:03;;;;;;;0.10;0.00;;;21.10;99.90;;;;;;5009095;28;20446;-85
2022/05/22 11:39:38;;;;;;;0.10;0.00;;;21.90;99.90;;;;;;5006810;28;20855;-84
2022/05/22 11:42:32;;;;;;;0.10;0.00;;;22.80;99.90;;;;;;5005526;28;20443;-83
2022/05/22 11:45:40;;;;;;;0.10;0.00;;;23.00;99.90;;;;;;4991010;28;20455;-85
2022/05/22 11:48:28;;;;;;;0.00;0.00;;;22.50;99.90;;;;;;4989072;28;21038;-84
2022/05/22 11:51:09;;;;;;;0.10;0.00;;;20.40;99.90;;;;;;5004389;28;20435;-84
2022/05/22 11:53:51;;;;;;;0.10;0.00;;;19.90;99.90;;;;;;4992295;28;21064;-82
2022/05/22 11:56:44;;;;;;;0.10;0.00;;;18.30;99.90;;;;;;4984501;28;20450;-83
2022/05/22 11:59:57;;;;;;;0.10;0.00;;;19.90;99.90;;;;;;5004523;28;20467;-85
2022/05/22 12:02:48;;;;;;;0.00;0.00;;;21.20;99.90;;;;;;4960424;28;20506;-85
2022/05/22 12:05:23;;;;;;;0.10;0.00;;;22.10;99.90;;;;;;5004642;28;20470;-84
2022/05/22 12:08:17;;;;;;;0.10;0.00;;;22.20;99.90;;;;;;5005164;28;20474;-84
2022/05/22 12:10:55;;;;;;;0.03;0.00;;;23.80;99.90;;;;;;5003592;28;20447;-84
2022/05/22 12:13:44;;;;;;;0.00;0.00;;;21.60;99.90;;;;;;4980654;28;21057;-86
2022/05/22 12:16:16;;;;;;;0.00;0.00;;;21.10;99.90;;;;;;4985569;28;20978;-85
2022/05/22 12:19:01;;;;;;;0.00;0.00;;;22.40;99.90;;;;;;4999576;28;20582;-84
2022/05/22 12:22:00;;;;;;;0.00;0.00;;;21.60;99.90;;;;;;5001553;28;20450;-84
2022/05/22 12:24:50;;;;;;;0.00;0.00;;;22.40;99.90;;;;;;4972033;28;20446;-86
2022/05/22 12:27:25;;;;;;;0.00;0.00;;;21.20;99.90;;;;;;5005334;28;20443;-85
2022/05/22 12:30:02;;;;;;;0.00;0.00;;;19.70;99.90;;;;;;4999109;28;20481;-85
2022/05/22 12:32:31;;;;;;;0.00;0.00;;;19.40;99.90;;;;;;5006690;28;20442;-86
2022/05/22 12:34:59;;;;;;;0.00;0.00;;;19.00;99.90;;;;;;5005986;28;20481;-85
2022/05/22 12:37:38;;;;;;;0.00;0.00;;;19.00;99.90;;;;;;5005932;28;20522;-85
2022/05/22 12:40:13;;;;;;;0.00;0.00;;;19.70;99.90;;;;;;4987835;28;20473;-83
2022/05/22 12:42:48;;;;;;;0.00;0.00;;;21.10;99.90;;;;;;4988567;28;20453;-86
2022/05/22 12:45:13;;;;;;;0.00;0.00;;;21.90;99.90;;;;;;4988381;28;20609;-85
2022/05/22 12:47:51;;;;;;;0.00;0.00;;;21.40;99.90;;;;;;5003243;28;20534;-84
2022/05/22 12:50:34;;;;;;;0.00;0.00;;;20.50;99.90;;;;;;4988351;28;20285;-84
2022/05/22 12:53:01;;;;;;;0.00;0.00;;;20.20;99.90;;;;;;4987844;28;20447;-84
2022/05/22 12:55:33;;;;;;;0.00;0.00;;;20.10;99.90;;;;;;5005606;28;20449;-83
2022/05/22 12:58:01;;;;;;;0.00;0.00;;;19.60;99.90;;;;;;5005554;28;22323;-84
2022/05/22 13:00:34;;;;;;;0.00;0.00;;;19.40;99.90;;;;;;5002658;28;20454;-86
2022/05/22 13:03:32;;;;;;;0.00;0.00;;;19.90;99.90;;;;;;4987916;28;20526;-84
2022/05/22 13:06:14;;;;;;;0.00;0.00;;;19.90;99.90;;;;;;4984689;28;20576;-84
2022/05/22 13:08:48;;;;;;;0.00;0.00;;;19.60;99.90;;;;;;5003210;28;20795;-86
2022/05/22 13:11:33;;;;;;;0.00;0.00;;;19.60;99.90;;;;;;5002685;28;21350;-88
2022/05/22 13:13:59;;;;;;;0.00;0.00;;;20.10;99.90;;;;;;5004891;28;20452;-89
2022/05/22 13:16:27;;;;;;;0.00;0.00;;;20.60;99.90;;;;;;5001293;28;20451;-90
2022/05/22 13:18:53;;;;;;;0.00;0.00;;;20.50;99.90;;;;;;4984895;28;20822;-89
2022/05/22 13:21:35;;;;;;;0.00;0.00;;;21.00;99.90;;;;;;5006069;28;20482;-89
2022/05/22 13:24:04;;;;;;;0.00;0.00;;;21.00;99.90;;;;;;4999026;28;20966;-86
2022/05/22 13:26:33;;;;;;;0.00;0.00;;;21.70;99.90;;;;;;5009421;28;20953;-85
2022/05/22 13:29:19;;;;;;;0.00;0.00;;;21.40;99.90;;;;;;5004220;28;20788;-85
2022/05/22 13:31:51;;;;;;;0.00;0.00;;;21.00;99.90;;;;;;5002883;28;21061;-86